sensor_id;sensor_type;location;lat;lon;timestamp;P1;durP1;ratioP1;P2;durP2;ratioP2
71048;SDS011;58704;53.358;-6.238;2023-07-31T00:02:14;4.27;;;1.77;;
71048;SDS011;58704;53.358;-6.238;2023-07-31T00:04:40;5.57;;;2.17;;
71048;SDS011;58704;53.358;-6.238;2023-07-31T00:07:05;2.97;;;1.70;;
71048;SDS011;58704;53.358;-6.238;2023-07-31T00:09:32;3.80;;;1.75;;
71048;SDS011;58704;53.358;-6.238;2023-07-31T00:11:57;3.13;;;1.53;;
71048;SDS011;58704;53.358;-6.238;2023-07-31T00:14:23;2.42;;;1.80;;
71048;SDS011;58704;53.358;-6.238;2023-07-31T00:16:49;2.97;;;1.40;;
71048;SDS011;58704;53.358;-6.238;2023-07-31T00:19:14;3.80;;;1.80;;
71048;SDS011;58704;53.358;-6.238;2023-07-31T00:21:40;7.07;;;2.10;;
71048;SDS011;58704;53.358;-6.238;2023-07-31T00:24:05;4.27;;;2.00;;
71048;SDS011;58704;53.358;-6.238;2023-07-31T00:26:31;4.93;;;2.40;;
71048;SDS011;58704;53.358;-6.238;2023-07-31T00:28:56;3.07;;;1.70;;
71048;SDS011;58704;53.358;-6.238;2023-07-31T00:31:21;2.00;;;1.63;;
71048;SDS011;58704;53.358;-6.238;2023-07-31T00:33:47;4.60;;;1.80;;
71048;SDS011;58704;53.358;-6.238;2023-07-31T00:36:12;3.43;;;1.87;;
71048;SDS011;58704;53.358;-6.238;2023-07-31T00:38:38;3.55;;;1.88;;
71048;SDS011;58704;53.358;-6.238;2023-07-31T00:41:03;5.43;;;1.90;;
71048;SDS011;58704;53.358;-6.238;2023-07-31T00:43:28;4.33;;;1.87;;
71048;SDS011;58704;53.358;-6.238;2023-07-31T00:45:54;5.37;;;1.97;;
71048;SDS011;58704;53.358;-6.238;2023-07-31T00:48:19;2.73;;;1.90;;
71048;SDS011;58704;53.358;-6.238;2023-07-31T00:50:45;5.07;;;1.93;;
71048;SDS011;58704;53.358;-6.238;2023-07-31T00:53:10;2.67;;;1.70;;
71048;SDS011;58704;53.358;-6.238;2023-07-31T00:55:35;3.07;;;1.57;;
71048;SDS011;58704;53.358;-6.238;2023-07-31T00:58:01;4.15;;;1.70;;
71048;SDS011;58704;53.358;-6.238;2023-07-31T01:00:26;4.50;;;1.80;;
71048;SDS011;58704;53.358;-6.238;2023-07-31T01:02:52;3.40;;;1.80;;
71048;SDS011;58704;53.358;-6.238;2023-07-31T01:05:22;4.85;;;1.80;;
71048;SDS011;58704;53.358;-6.238;2023-07-31T01:10:49;4.13;;;1.50;;
71048;SDS011;58704;53.358;-6.238;2023-07-31T01:13:17;5.50;;;1.60;;
71048;SDS011;58704;53.358;-6.238;2023-07-31T01:15:43;3.53;;;2.47;;
71048;SDS011;58704;53.358;-6.238;2023-07-31T01:18:08;3.50;;;1.70;;
71048;SDS011;58704;53.358;-6.238;2023-07-31T01:20:34;3.10;;;1.50;;
71048;SDS011;58704;53.358;-6.238;2023-07-31T01:26:03;2.67;;;1.40;;
71048;SDS011;58704;53.358;-6.238;2023-07-31T01:31:22;2.60;;;1.50;;
71048;SDS011;58704;53.358;-6.238;2023-07-31T01:33:49;2.53;;;1.37;;
71048;SDS011;58704;53.358;-6.238;2023-07-31T01:36:15;5.55;;;1.70;;
71048;SDS011;58704;53.358;-6.238;2023-07-31T01:38:41;2.03;;;1.73;;
71048;SDS011;58704;53.358;-6.238;2023-07-31T01:41:06;1.77;;;1.40;;
71048;SDS011;58704;53.358;-6.238;2023-07-31T01:43:32;2.10;;;1.40;;
71048;SDS011;58704;53.358;-6.238;2023-07-31T01:45:57;4.93;;;1.50;;
71048;SDS011;58704;53.358;-6.238;2023-07-31T01:48:22;1.77;;;1.40;;
71048;SDS011;58704;53.358;-6.238;2023-07-31T01:50:48;1.88;;;1.30;;
71048;SDS011;58704;53.358;-6.238;2023-07-31T01:53:13;3.30;;;1.30;;
71048;SDS011;58704;53.358;-6.238;2023-07-31T01:55:39;4.80;;;1.58;;
71048;SDS011;58704;53.358;-6.238;2023-07-31T01:58:05;3.00;;;1.20;;
71048;SDS011;58704;53.358;-6.238;2023-07-31T02:00:30;1.87;;;1.27;;
71048;SDS011;58704;53.358;-6.238;2023-07-31T02:02:55;3.87;;;1.50;;
71048;SDS011;58704;53.358;-6.238;2023-07-31T02:05:21;2.17;;;1.50;;
71048;SDS011;58704;53.358;-6.238;2023-07-31T02:07:46;2.30;;;1.40;;
71048;SDS011;58704;53.358;-6.238;2023-07-31T02:10:11;3.77;;;1.43;;
71048;SDS011;58704;53.358;-6.238;2023-07-31T02:12:37;2.60;;;1.40;;
71048;SDS011;58704;53.358;-6.238;2023-07-31T02:15:03;3.15;;;1.40;;
71048;SDS011;58704;53.358;-6.238;2023-07-31T02:17:28;3.23;;;1.27;;
71048;SDS011;58704;53.358;-6.238;2023-07-31T02:19:54;2.83;;;1.48;;
71048;SDS011;58704;53.358;-6.238;2023-07-31T02:22:20;2.83;;;1.43;;
71048;SDS011;58704;53.358;-6.238;2023-07-31T02:24:45;2.70;;;1.47;;
71048;SDS011;58704;53.358;-6.238;2023-07-31T02:27:10;4.10;;;1.65;;
71048;SDS011;58704;53.358;-6.238;2023-07-31T02:29:36;1.77;;;1.27;;
71048;SDS011;58704;53.358;-6.238;2023-07-31T02:32:02;2.72;;;1.55;;
71048;SDS011;58704;53.358;-6.238;2023-07-31T02:34:28;3.20;;;1.60;;
71048;SDS011;58704;53.358;-6.238;2023-07-31T02:36:53;1.87;;;1.30;;
71048;SDS011;58704;53.358;-6.238;2023-07-31T02:39:18;2.92;;;1.55;;
71048;SDS011;58704;53.358;-6.238;2023-07-31T02:41:44;5.63;;;1.53;;
71048;SDS011;58704;53.358;-6.238;2023-07-31T02:44:09;3.57;;;1.60;;
71048;SDS011;58704;53.358;-6.238;2023-07-31T02:46:35;2.05;;;1.30;;
71048;SDS011;58704;53.358;-6.238;2023-07-31T02:49:01;2.23;;;1.57;;
71048;SDS011;58704;53.358;-6.238;2023-07-31T02:51:26;1.40;;;1.30;;
71048;SDS011;58704;53.358;-6.238;2023-07-31T02:53:51;2.57;;;1.40;;
71048;SDS011;58704;53.358;-6.238;2023-07-31T02:56:17;2.00;;;1.20;;
71048;SDS011;58704;53.358;-6.238;2023-07-31T02:58:42;2.03;;;1.20;;
71048;SDS011;58704;53.358;-6.238;2023-07-31T03:01:08;4.90;;;1.30;;
71048;SDS011;58704;53.358;-6.238;2023-07-31T03:03:33;2.50;;;1.20;;
71048;SDS011;58704;53.358;-6.238;2023-07-31T03:05:58;1.90;;;1.10;;
71048;SDS011;58704;53.358;-6.238;2023-07-31T03:08:24;1.57;;;0.90;;
71048;SDS011;58704;53.358;-6.238;2023-07-31T03:10:49;2.00;;;1.10;;
71048;SDS011;58704;53.358;-6.238;2023-07-31T03:13:15;3.08;;;1.30;;
71048;SDS011;58704;53.358;-6.238;2023-07-31T03:15:43;3.23;;;1.20;;
71048;SDS011;58704;53.358;-6.238;2023-07-31T03:18:09;2.75;;;1.10;;
71048;SDS011;58704;53.358;-6.238;2023-07-31T03:20:34;2.50;;;1.10;;
71048;SDS011;58704;53.358;-6.238;2023-07-31T03:23:00;1.30;;;0.97;;
71048;SDS011;58704;53.358;-6.238;2023-07-31T03:25:25;1.00;;;0.90;;
71048;SDS011;58704;53.358;-6.238;2023-07-31T03:27:50;1.87;;;1.10;;
71048;SDS011;58704;53.358;-6.238;2023-07-31T03:30:16;3.10;;;1.10;;
71048;SDS011;58704;53.358;-6.238;2023-07-31T03:32:41;2.63;;;1.30;;
71048;SDS011;58704;53.358;-6.238;2023-07-31T03:35:06;1.73;;;1.20;;
71048;SDS011;58704;53.358;-6.238;2023-07-31T03:37:32;1.33;;;1.20;;
71048;SDS011;58704;53.358;-6.238;2023-07-31T03:39:57;1.87;;;1.00;;
71048;SDS011;58704;53.358;-6.238;2023-07-31T03:42:23;3.13;;;1.07;;
71048;SDS011;58704;53.358;-6.238;2023-07-31T03:44:48;1.70;;;1.05;;
71048;SDS011;58704;53.358;-6.238;2023-07-31T03:47:14;2.27;;;1.17;;
71048;SDS011;58704;53.358;-6.238;2023-07-31T03:49:39;1.20;;;1.00;;
71048;SDS011;58704;53.358;-6.238;2023-07-31T03:52:05;1.27;;;0.87;;
71048;SDS011;58704;53.358;-6.238;2023-07-31T03:54:30;1.20;;;1.10;;
71048;SDS011;58704;53.358;-6.238;2023-07-31T03:56:56;1.90;;;1.03;;
71048;SDS011;58704;53.358;-6.238;2023-07-31T03:59:21;1.53;;;1.03;;
71048;SDS011;58704;53.358;-6.238;2023-07-31T04:01:46;2.13;;;1.03;;
71048;SDS011;58704;53.358;-6.238;2023-07-31T04:04:12;1.38;;;1.08;;
71048;SDS011;58704;53.358;-6.238;2023-07-31T04:06:37;1.10;;;1.00;;
71048;SDS011;58704;53.358;-6.238;2023-07-31T04:09:02;5.60;;;1.10;;
71048;SDS011;58704;53.358;-6.238;2023-07-31T04:11:28;1.77;;;0.97;;
71048;SDS011;58704;53.358;-6.238;2023-07-31T04:13:53;1.23;;;1.10;;
71048;SDS011;58704;53.358;-6.238;2023-07-31T04:16:19;1.97;;;1.20;;
71048;SDS011;58704;53.358;-6.238;2023-07-31T04:18:44;1.97;;;1.10;;
71048;SDS011;58704;53.358;-6.238;2023-07-31T04:21:09;3.77;;;1.23;;
71048;SDS011;58704;53.358;-6.238;2023-07-31T04:23:35;1.43;;;1.20;;
71048;SDS011;58704;53.358;-6.238;2023-07-31T04:26:00;2.30;;;1.38;;
71048;SDS011;58704;53.358;-6.238;2023-07-31T04:28:26;1.10;;;1.03;;
71048;SDS011;58704;53.358;-6.238;2023-07-31T04:30:51;2.63;;;0.93;;
71048;SDS011;58704;53.358;-6.238;2023-07-31T04:33:18;1.67;;;1.20;;
71048;SDS011;58704;53.358;-6.238;2023-07-31T04:35:48;1.25;;;1.10;;
71048;SDS011;58704;53.358;-6.238;2023-07-31T04:38:17;1.20;;;0.90;;
71048;SDS011;58704;53.358;-6.238;2023-07-31T04:40:46;4.18;;;1.15;;
71048;SDS011;58704;53.358;-6.238;2023-07-31T04:43:12;1.83;;;1.05;;
71048;SDS011;58704;53.358;-6.238;2023-07-31T04:45:37;1.60;;;1.10;;
71048;SDS011;58704;53.358;-6.238;2023-07-31T04:48:03;2.77;;;1.10;;
71048;SDS011;58704;53.358;-6.238;2023-07-31T04:50:28;1.67;;;1.13;;
71048;SDS011;58704;53.358;-6.238;2023-07-31T04:52:56;2.30;;;0.87;;
71048;SDS011;58704;53.358;-6.238;2023-07-31T04:55:21;1.20;;;0.95;;
71048;SDS011;58704;53.358;-6.238;2023-07-31T04:57:47;2.75;;;1.10;;
71048;SDS011;58704;53.358;-6.238;2023-07-31T05:00:12;1.33;;;0.97;;
71048;SDS011;58704;53.358;-6.238;2023-07-31T05:02:38;1.60;;;1.27;;
71048;SDS011;58704;53.358;-6.238;2023-07-31T05:05:03;1.20;;;1.00;;
71048;SDS011;58704;53.358;-6.238;2023-07-31T05:07:29;1.50;;;1.30;;
71048;SDS011;58704;53.358;-6.238;2023-07-31T05:09:54;0.90;;;0.90;;
71048;SDS011;58704;53.358;-6.238;2023-07-31T05:12:19;2.40;;;1.20;;
71048;SDS011;58704;53.358;-6.238;2023-07-31T05:14:45;1.47;;;1.20;;
71048;SDS011;58704;53.358;-6.238;2023-07-31T05:17:10;1.23;;;0.90;;
71048;SDS011;58704;53.358;-6.238;2023-07-31T05:19:35;3.53;;;1.07;;
71048;SDS011;58704;53.358;-6.238;2023-07-31T05:22:01;2.23;;;1.20;;
71048;SDS011;58704;53.358;-6.238;2023-07-31T05:24:26;1.83;;;1.20;;
71048;SDS011;58704;53.358;-6.238;2023-07-31T05:26:52;2.80;;;1.20;;
71048;SDS011;58704;53.358;-6.238;2023-07-31T05:29:17;3.58;;;1.40;;
71048;SDS011;58704;53.358;-6.238;2023-07-31T05:31:42;5.30;;;1.50;;
71048;SDS011;58704;53.358;-6.238;2023-07-31T05:34:08;4.23;;;1.47;;
71048;SDS011;58704;53.358;-6.238;2023-07-31T05:36:33;2.60;;;1.40;;
71048;SDS011;58704;53.358;-6.238;2023-07-31T05:38:58;3.67;;;2.17;;
71048;SDS011;58704;53.358;-6.238;2023-07-31T05:41:24;3.53;;;1.60;;
71048;SDS011;58704;53.358;-6.238;2023-07-31T05:43:49;2.40;;;1.37;;
71048;SDS011;58704;53.358;-6.238;2023-07-31T05:46:16;5.35;;;1.67;;
71048;SDS011;58704;53.358;-6.238;2023-07-31T05:48:41;4.37;;;1.80;;
71048;SDS011;58704;53.358;-6.238;2023-07-31T05:51:07;3.73;;;1.67;;
71048;SDS011;58704;53.358;-6.238;2023-07-31T05:53:32;3.37;;;1.67;;
71048;SDS011;58704;53.358;-6.238;2023-07-31T05:55:58;2.33;;;1.73;;
71048;SDS011;58704;53.358;-6.238;2023-07-31T05:58:23;4.13;;;1.97;;
71048;SDS011;58704;53.358;-6.238;2023-07-31T06:00:48;6.10;;;2.00;;
71048;SDS011;58704;53.358;-6.238;2023-07-31T06:03:14;4.90;;;1.87;;
71048;SDS011;58704;53.358;-6.238;2023-07-31T06:05:39;3.90;;;1.77;;
71048;SDS011;58704;53.358;-6.238;2023-07-31T06:08:05;6.30;;;2.00;;
71048;SDS011;58704;53.358;-6.238;2023-07-31T06:10:30;5.00;;;1.80;;
71048;SDS011;58704;53.358;-6.238;2023-07-31T06:12:55;5.40;;;2.00;;
71048;SDS011;58704;53.358;-6.238;2023-07-31T06:15:22;4.07;;;1.50;;
71048;SDS011;58704;53.358;-6.238;2023-07-31T06:17:47;3.07;;;1.73;;
71048;SDS011;58704;53.358;-6.238;2023-07-31T06:20:13;4.05;;;2.13;;
71048;SDS011;58704;53.358;-6.238;2023-07-31T06:22:38;4.63;;;1.90;;
71048;SDS011;58704;53.358;-6.238;2023-07-31T06:25:04;8.73;;;2.00;;
71048;SDS011;58704;53.358;-6.238;2023-07-31T06:27:29;8.07;;;3.00;;
71048;SDS011;58704;53.358;-6.238;2023-07-31T06:29:55;3.93;;;2.23;;
71048;SDS011;58704;53.358;-6.238;2023-07-31T06:32:20;4.67;;;2.40;;
71048;SDS011;58704;53.358;-6.238;2023-07-31T06:34:45;7.07;;;3.20;;
71048;SDS011;58704;53.358;-6.238;2023-07-31T06:37:11;5.70;;;2.23;;
71048;SDS011;58704;53.358;-6.238;2023-07-31T06:39:36;4.90;;;2.60;;
71048;SDS011;58704;53.358;-6.238;2023-07-31T06:42:02;8.85;;;2.42;;
71048;SDS011;58704;53.358;-6.238;2023-07-31T06:44:28;5.33;;;2.50;;
71048;SDS011;58704;53.358;-6.238;2023-07-31T06:46:53;8.23;;;2.58;;
71048;SDS011;58704;53.358;-6.238;2023-07-31T06:49:19;6.33;;;2.70;;
71048;SDS011;58704;53.358;-6.238;2023-07-31T06:51:44;8.40;;;2.97;;
71048;SDS011;58704;53.358;-6.238;2023-07-31T06:54:09;4.63;;;2.83;;
71048;SDS011;58704;53.358;-6.238;2023-07-31T06:56:35;8.10;;;2.43;;
71048;SDS011;58704;53.358;-6.238;2023-07-31T06:59:00;9.30;;;2.70;;
71048;SDS011;58704;53.358;-6.238;2023-07-31T07:01:26;8.63;;;3.23;;
71048;SDS011;58704;53.358;-6.238;2023-07-31T07:03:52;7.85;;;2.30;;
71048;SDS011;58704;53.358;-6.238;2023-07-31T07:06:18;4.50;;;2.00;;
71048;SDS011;58704;53.358;-6.238;2023-07-31T07:08:43;4.47;;;2.45;;
71048;SDS011;58704;53.358;-6.238;2023-07-31T07:11:09;8.47;;;2.70;;
71048;SDS011;58704;53.358;-6.238;2023-07-31T07:13:34;8.73;;;2.23;;
71048;SDS011;58704;53.358;-6.238;2023-07-31T07:16:07;7.80;;;2.63;;
71048;SDS011;58704;53.358;-6.238;2023-07-31T07:18:33;10.82;;;2.97;;
71048;SDS011;58704;53.358;-6.238;2023-07-31T07:20:58;8.70;;;2.77;;
71048;SDS011;58704;53.358;-6.238;2023-07-31T07:23:24;8.87;;;2.40;;
71048;SDS011;58704;53.358;-6.238;2023-07-31T07:25:49;3.97;;;2.30;;
71048;SDS011;58704;53.358;-6.238;2023-07-31T07:28:16;7.95;;;2.60;;
71048;SDS011;58704;53.358;-6.238;2023-07-31T07:30:41;12.00;;;2.57;;
71048;SDS011;58704;53.358;-6.238;2023-07-31T07:33:07;4.93;;;2.30;;
71048;SDS011;58704;53.358;-6.238;2023-07-31T07:35:35;8.33;;;2.10;;
71048;SDS011;58704;53.358;-6.238;2023-07-31T07:38:01;5.40;;;2.72;;
71048;SDS011;58704;53.358;-6.238;2023-07-31T07:40:27;8.55;;;2.55;;
71048;SDS011;58704;53.358;-6.238;2023-07-31T07:42:53;7.80;;;2.63;;
71048;SDS011;58704;53.358;-6.238;2023-07-31T07:45:18;6.07;;;2.33;;
71048;SDS011;58704;53.358;-6.238;2023-07-31T07:47:43;7.40;;;2.40;;
71048;SDS011;58704;53.358;-6.238;2023-07-31T07:50:09;6.67;;;2.53;;
71048;SDS011;58704;53.358;-6.238;2023-07-31T07:52:34;5.10;;;2.20;;
71048;SDS011;58704;53.358;-6.238;2023-07-31T07:55:00;3.87;;;1.80;;
71048;SDS011;58704;53.358;-6.238;2023-07-31T07:57:25;5.57;;;2.53;;
71048;SDS011;58704;53.358;-6.238;2023-07-31T07:59:51;5.65;;;2.10;;
71048;SDS011;58704;53.358;-6.238;2023-07-31T08:02:17;7.83;;;2.97;;
71048;SDS011;58704;53.358;-6.238;2023-07-31T08:04:42;6.23;;;2.30;;
71048;SDS011;58704;53.358;-6.238;2023-07-31T08:07:07;8.37;;;2.70;;
71048;SDS011;58704;53.358;-6.238;2023-07-31T08:09:33;7.80;;;2.53;;
71048;SDS011;58704;53.358;-6.238;2023-07-31T08:11:58;5.10;;;2.33;;
71048;SDS011;58704;53.358;-6.238;2023-07-31T08:14:27;6.27;;;2.13;;
71048;SDS011;58704;53.358;-6.238;2023-07-31T08:16:53;7.80;;;2.10;;
71048;SDS011;58704;53.358;-6.238;2023-07-31T08:19:18;6.30;;;2.07;;
71048;SDS011;58704;53.358;-6.238;2023-07-31T08:21:44;4.50;;;2.00;;
71048;SDS011;58704;53.358;-6.238;2023-07-31T08:24:09;5.47;;;1.60;;
71048;SDS011;58704;53.358;-6.238;2023-07-31T08:26:35;4.97;;;1.80;;
71048;SDS011;58704;53.358;-6.238;2023-07-31T08:29:00;10.37;;;2.00;;
71048;SDS011;58704;53.358;-6.238;2023-07-31T08:31:25;6.33;;;1.97;;
71048;SDS011;58704;53.358;-6.238;2023-07-31T08:33:51;6.13;;;1.77;;
71048;SDS011;58704;53.358;-6.238;2023-07-31T08:36:17;5.63;;;1.80;;
71048;SDS011;58704;53.358;-6.238;2023-07-31T08:38:42;5.33;;;2.13;;
71048;SDS011;58704;53.358;-6.238;2023-07-31T08:41:08;8.30;;;1.90;;
71048;SDS011;58704;53.358;-6.238;2023-07-31T08:43:33;10.40;;;2.30;;
71048;SDS011;58704;53.358;-6.238;2023-07-31T08:46:00;13.00;;;2.55;;
71048;SDS011;58704;53.358;-6.238;2023-07-31T08:48:25;11.02;;;2.42;;
71048;SDS011;58704;53.358;-6.238;2023-07-31T08:50:51;8.50;;;2.50;;
71048;SDS011;58704;53.358;-6.238;2023-07-31T08:53:18;8.65;;;2.95;;
71048;SDS011;58704;53.358;-6.238;2023-07-31T08:55:44;9.77;;;2.37;;
71048;SDS011;58704;53.358;-6.238;2023-07-31T08:58:09;7.57;;;2.72;;
71048;SDS011;58704;53.358;-6.238;2023-07-31T09:00:37;9.98;;;2.92;;
71048;SDS011;58704;53.358;-6.238;2023-07-31T09:03:03;19.60;;;3.10;;
71048;SDS011;58704;53.358;-6.238;2023-07-31T09:05:33;9.25;;;2.50;;
71048;SDS011;58704;53.358;-6.238;2023-07-31T09:08:04;11.00;;;2.50;;
71048;SDS011;58704;53.358;-6.238;2023-07-31T09:10:35;12.67;;;2.33;;
71048;SDS011;58704;53.358;-6.238;2023-07-31T09:13:05;9.13;;;2.40;;
71048;SDS011;58704;53.358;-6.238;2023-07-31T09:15:31;9.10;;;2.53;;
71048;SDS011;58704;53.358;-6.238;2023-07-31T09:18:00;11.77;;;3.37;;
71048;SDS011;58704;53.358;-6.238;2023-07-31T09:20:29;11.37;;;2.90;;
71048;SDS011;58704;53.358;-6.238;2023-07-31T09:22:56;10.55;;;2.60;;
71048;SDS011;58704;53.358;-6.238;2023-07-31T09:25:25;12.02;;;2.75;;
71048;SDS011;58704;53.358;-6.238;2023-07-31T09:27:56;11.20;;;2.73;;
71048;SDS011;58704;53.358;-6.238;2023-07-31T09:30:23;9.55;;;2.38;;
71048;SDS011;58704;53.358;-6.238;2023-07-31T09:32:50;14.02;;;3.10;;
71048;SDS011;58704;53.358;-6.238;2023-07-31T09:37:53;12.63;;;3.00;;
71048;SDS011;58704;53.358;-6.238;2023-07-31T09:40:25;13.43;;;2.63;;
71048;SDS011;58704;53.358;-6.238;2023-07-31T09:43:01;18.55;;;3.45;;
71048;SDS011;58704;53.358;-6.238;2023-07-31T09:45:35;12.77;;;2.90;;
71048;SDS011;58704;53.358;-6.238;2023-07-31T09:48:08;9.57;;;2.78;;
71048;SDS011;58704;53.358;-6.238;2023-07-31T09:50:38;13.38;;;3.22;;
71048;SDS011;58704;53.358;-6.238;2023-07-31T09:53:05;10.20;;;2.37;;
71048;SDS011;58704;53.358;-6.238;2023-07-31T09:55:31;11.27;;;2.50;;
71048;SDS011;58704;53.358;-6.238;2023-07-31T09:57:57;9.43;;;2.22;;
71048;SDS011;58704;53.358;-6.238;2023-07-31T10:00:23;9.32;;;2.53;;
71048;SDS011;58704;53.358;-6.238;2023-07-31T10:02:53;7.15;;;2.58;;
71048;SDS011;58704;53.358;-6.238;2023-07-31T10:05:19;8.60;;;2.30;;
71048;SDS011;58704;53.358;-6.238;2023-07-31T10:08:04;12.20;;;2.30;;
71048;SDS011;58704;53.358;-6.238;2023-07-31T10:10:32;15.77;;;2.90;;
71048;SDS011;58704;53.358;-6.238;2023-07-31T10:13:01;14.15;;;3.17;;
71048;SDS011;58704;53.358;-6.238;2023-07-31T10:15:27;9.68;;;3.00;;
71048;SDS011;58704;53.358;-6.238;2023-07-31T10:17:52;15.23;;;3.83;;
71048;SDS011;58704;53.358;-6.238;2023-07-31T10:20:19;11.77;;;2.83;;
71048;SDS011;58704;53.358;-6.238;2023-07-31T10:22:45;14.35;;;3.30;;
71048;SDS011;58704;53.358;-6.238;2023-07-31T10:25:11;7.22;;;2.33;;
71048;SDS011;58704;53.358;-6.238;2023-07-31T10:27:38;8.10;;;2.50;;
71048;SDS011;58704;53.358;-6.238;2023-07-31T10:30:04;11.77;;;3.15;;
71048;SDS011;58704;53.358;-6.238;2023-07-31T10:32:31;10.13;;;2.80;;
71048;SDS011;58704;53.358;-6.238;2023-07-31T10:34:57;11.47;;;3.23;;
71048;SDS011;58704;53.358;-6.238;2023-07-31T10:37:30;8.07;;;2.40;;
71048;SDS011;58704;53.358;-6.238;2023-07-31T10:42:29;8.82;;;2.67;;
71048;SDS011;58704;53.358;-6.238;2023-07-31T10:44:58;9.65;;;2.75;;
71048;SDS011;58704;53.358;-6.238;2023-07-31T10:47:25;7.83;;;2.60;;
71048;SDS011;58704;53.358;-6.238;2023-07-31T10:49:50;9.57;;;2.95;;
71048;SDS011;58704;53.358;-6.238;2023-07-31T10:52:20;9.70;;;3.17;;
71048;SDS011;58704;53.358;-6.238;2023-07-31T10:55:12;9.63;;;2.80;;
71048;SDS011;58704;53.358;-6.238;2023-07-31T10:58:11;12.20;;;2.75;;
71048;SDS011;58704;53.358;-6.238;2023-07-31T11:00:40;5.85;;;2.53;;
71048;SDS011;58704;53.358;-6.238;2023-07-31T11:03:14;11.30;;;3.00;;
71048;SDS011;58704;53.358;-6.238;2023-07-31T11:08:25;10.00;;;3.03;;
71048;SDS011;58704;53.358;-6.238;2023-07-31T11:13:26;9.80;;;2.08;;
71048;SDS011;58704;53.358;-6.238;2023-07-31T11:15:52;8.57;;;2.40;;
71048;SDS011;58704;53.358;-6.238;2023-07-31T11:18:19;9.52;;;2.85;;
71048;SDS011;58704;53.358;-6.238;2023-07-31T11:20:45;15.23;;;2.10;;
71048;SDS011;58704;53.358;-6.238;2023-07-31T11:23:13;10.57;;;2.33;;
71048;SDS011;58704;53.358;-6.238;2023-07-31T11:25:42;6.25;;;2.53;;
71048;SDS011;58704;53.358;-6.238;2023-07-31T11:28:09;7.00;;;2.50;;
71048;SDS011;58704;53.358;-6.238;2023-07-31T11:30:36;7.05;;;2.42;;
71048;SDS011;58704;53.358;-6.238;2023-07-31T11:33:02;6.78;;;2.67;;
71048;SDS011;58704;53.358;-6.238;2023-07-31T11:35:35;7.83;;;2.87;;
71048;SDS011;58704;53.358;-6.238;2023-07-31T11:38:25;12.15;;;2.90;;
71048;SDS011;58704;53.358;-6.238;2023-07-31T11:40:56;7.65;;;2.63;;
71048;SDS011;58704;53.358;-6.238;2023-07-31T11:43:25;5.55;;;2.47;;
71048;SDS011;58704;53.358;-6.238;2023-07-31T11:45:52;8.15;;;2.97;;
71048;SDS011;58704;53.358;-6.238;2023-07-31T12:19:18;7.68;;;2.60;;
71048;SDS011;58704;53.358;-6.238;2023-07-31T12:21:44;5.90;;;2.55;;
71048;SDS011;58704;53.358;-6.238;2023-07-31T12:24:09;5.67;;;1.97;;
71048;SDS011;58704;53.358;-6.238;2023-07-31T12:26:35;7.10;;;2.07;;
71048;SDS011;58704;53.358;-6.238;2023-07-31T12:29:00;6.85;;;1.85;;
71048;SDS011;58704;53.358;-6.238;2023-07-31T12:31:27;6.03;;;2.03;;
71048;SDS011;58704;53.358;-6.238;2023-07-31T12:33:53;5.95;;;1.80;;
71048;SDS011;58704;53.358;-6.238;2023-07-31T12:36:22;6.75;;;1.55;;
71048;SDS011;58704;53.358;-6.238;2023-07-31T12:38:54;4.60;;;1.60;;
71048;SDS011;58704;53.358;-6.238;2023-07-31T12:41:21;5.13;;;1.70;;
71048;SDS011;58704;53.358;-6.238;2023-07-31T12:43:48;4.57;;;1.80;;
71048;SDS011;58704;53.358;-6.238;2023-07-31T12:46:14;4.73;;;1.63;;
71048;SDS011;58704;53.358;-6.238;2023-07-31T12:48:44;6.13;;;2.45;;
71048;SDS011;58704;53.358;-6.238;2023-07-31T12:51:10;5.93;;;2.00;;
71048;SDS011;58704;53.358;-6.238;2023-07-31T12:53:40;5.97;;;1.88;;
71048;SDS011;58704;53.358;-6.238;2023-07-31T12:56:05;5.60;;;2.00;;
71048;SDS011;58704;53.358;-6.238;2023-07-31T12:58:31;6.67;;;1.90;;
71048;SDS011;58704;53.358;-6.238;2023-07-31T13:00:59;4.90;;;1.97;;
71048;SDS011;58704;53.358;-6.238;2023-07-31T13:03:27;4.03;;;1.65;;
71048;SDS011;58704;53.358;-6.238;2023-07-31T13:06:02;5.35;;;1.90;;
71048;SDS011;58704;53.358;-6.238;2023-07-31T13:08:28;6.70;;;2.10;;
71048;SDS011;58704;53.358;-6.238;2023-07-31T13:11:01;5.45;;;1.98;;
71048;SDS011;58704;53.358;-6.238;2023-07-31T13:13:39;7.23;;;2.00;;
71048;SDS011;58704;53.358;-6.238;2023-07-31T13:16:15;5.28;;;1.75;;
71048;SDS011;58704;53.358;-6.238;2023-07-31T13:18:51;6.95;;;2.38;;
71048;SDS011;58704;53.358;-6.238;2023-07-31T13:21:20;5.30;;;1.90;;
71048;SDS011;58704;53.358;-6.238;2023-07-31T13:24:04;8.38;;;2.13;;
71048;SDS011;58704;53.358;-6.238;2023-07-31T13:26:41;4.47;;;2.23;;
71048;SDS011;58704;53.358;-6.238;2023-07-31T13:29:20;7.13;;;2.42;;
71048;SDS011;58704;53.358;-6.238;2023-07-31T13:31:47;5.93;;;2.50;;
71048;SDS011;58704;53.358;-6.238;2023-07-31T13:34:15;11.38;;;3.25;;
71048;SDS011;58704;53.358;-6.238;2023-07-31T13:36:42;7.97;;;2.38;;
71048;SDS011;58704;53.358;-6.238;2023-07-31T13:39:25;7.13;;;2.43;;
71048;SDS011;58704;53.358;-6.238;2023-07-31T13:41:53;5.72;;;2.15;;
71048;SDS011;58704;53.358;-6.238;2023-07-31T13:44:21;7.13;;;2.30;;
71048;SDS011;58704;53.358;-6.238;2023-07-31T13:46:54;6.40;;;1.90;;
71048;SDS011;58704;53.358;-6.238;2023-07-31T13:49:19;8.25;;;2.35;;
71048;SDS011;58704;53.358;-6.238;2023-07-31T13:52:09;3.90;;;1.80;;
71048;SDS011;58704;53.358;-6.238;2023-07-31T13:54:38;5.15;;;2.13;;
71048;SDS011;58704;53.358;-6.238;2023-07-31T13:57:13;5.88;;;1.98;;
71048;SDS011;58704;53.358;-6.238;2023-07-31T13:59:48;5.07;;;1.88;;
71048;SDS011;58704;53.358;-6.238;2023-07-31T14:02:21;5.80;;;2.22;;
71048;SDS011;58704;53.358;-6.238;2023-07-31T14:04:50;9.20;;;2.50;;
71048;SDS011;58704;53.358;-6.238;2023-07-31T14:07:29;9.23;;;1.92;;
71048;SDS011;58704;53.358;-6.238;2023-07-31T14:09:59;6.07;;;2.10;;
71048;SDS011;58704;53.358;-6.238;2023-07-31T14:12:37;5.85;;;2.35;;
71048;SDS011;58704;53.358;-6.238;2023-07-31T14:15:08;9.18;;;2.60;;
71048;SDS011;58704;53.358;-6.238;2023-07-31T14:17:56;5.60;;;2.10;;
71048;SDS011;58704;53.358;-6.238;2023-07-31T14:20:27;8.05;;;2.05;;
71048;SDS011;58704;53.358;-6.238;2023-07-31T14:23:04;4.28;;;1.85;;
71048;SDS011;58704;53.358;-6.238;2023-07-31T14:25:32;5.88;;;2.08;;
71048;SDS011;58704;53.358;-6.238;2023-07-31T14:27:58;4.30;;;1.90;;
71048;SDS011;58704;53.358;-6.238;2023-07-31T14:30:31;5.43;;;2.08;;
71048;SDS011;58704;53.358;-6.238;2023-07-31T14:33:01;5.60;;;2.20;;
71048;SDS011;58704;53.358;-6.238;2023-07-31T14:35:27;5.90;;;1.73;;
71048;SDS011;58704;53.358;-6.238;2023-07-31T14:37:53;5.37;;;1.90;;
71048;SDS011;58704;53.358;-6.238;2023-07-31T14:40:18;4.50;;;1.88;;
71048;SDS011;58704;53.358;-6.238;2023-07-31T14:42:54;5.63;;;2.00;;
71048;SDS011;58704;53.358;-6.238;2023-07-31T14:45:19;8.30;;;2.13;;
71048;SDS011;58704;53.358;-6.238;2023-07-31T14:47:45;2.53;;;1.43;;
71048;SDS011;58704;53.358;-6.238;2023-07-31T14:50:14;3.58;;;1.52;;
71048;SDS011;58704;53.358;-6.238;2023-07-31T14:52:39;5.25;;;2.03;;
71048;SDS011;58704;53.358;-6.238;2023-07-31T14:55:17;5.50;;;1.77;;
71048;SDS011;58704;53.358;-6.238;2023-07-31T14:57:43;4.72;;;1.65;;
71048;SDS011;58704;53.358;-6.238;2023-07-31T15:00:11;5.10;;;1.80;;
71048;SDS011;58704;53.358;-6.238;2023-07-31T15:02:37;4.57;;;2.00;;
71048;SDS011;58704;53.358;-6.238;2023-07-31T15:05:13;8.13;;;1.90;;
71048;SDS011;58704;53.358;-6.238;2023-07-31T15:07:38;4.43;;;1.80;;
71048;SDS011;58704;53.358;-6.238;2023-07-31T15:10:04;6.53;;;1.93;;
71048;SDS011;58704;53.358;-6.238;2023-07-31T15:12:30;5.25;;;1.77;;
71048;SDS011;58704;53.358;-6.238;2023-07-31T15:15:09;5.85;;;1.85;;
71048;SDS011;58704;53.358;-6.238;2023-07-31T15:17:36;3.13;;;1.70;;
71048;SDS011;58704;53.358;-6.238;2023-07-31T15:20:05;4.37;;;1.57;;
71048;SDS011;58704;53.358;-6.238;2023-07-31T15:22:37;5.80;;;1.70;;
71048;SDS011;58704;53.358;-6.238;2023-07-31T15:25:02;6.13;;;1.80;;